Topton, NC (28781)

5:34 AM EDT on September 02, 2014 (GMT -0400)
Noon Day Sun Ridge | Change Station
CLOSE
Current Station
Personal Weather Station
Location: Topton, NC
Elevation: 3003 ft
Nearby Weather Stations

Elev 3003 ft 35.26 °N, 83.69 °W | Updated 2 seconds ago

Clear
Clear
67.8 °F
Feels Like 67.8 °F
N
0.0
Wind Variable Wind from SSW
Gusts 0.0 mph

Today
High -- | Low -- °F
--% Chance of Precip.
Yesterday
High -- | Low -- °F
Precip. -- in
7:08 AM 8:00 PM
Waxing Crescent, 49% visible
Pressure 30.15 in
Visibility 7.0 miles
Clouds Clear
Dew Point 67 °F
Humidity 97%
Rainfall 0.00 in
Snow Depth Not available.
UV 0 out of 12
Pollen 10.20 out of 12
Air Quality Not available.
Flu Activity Not available.
METAR KRHP 020915Z AUTO 00000KT 7SM CLR 19/19 A3015 RMK AO2 T01870186

More Conditions Fewer Conditions

Pressure 30.15 in
Visibility 7.0 miles
Clouds Clear
Dew Point 67 °F
Humidity 97%
Rainfall 0.00 in
Snow Depth Not available.
UV 0 out of 12
Pollen 10.20 out of 12
Air Quality Not available.
Flu Activity Not available.
METAR KRHP 020915Z AUTO 00000KT 7SM CLR 19/19 A3015 RMK AO2 T01870186

More Conditions Fewer Conditions

10-Day Weather Forecast

Almanac

Astronomy

Sep. 02, 2014 Rise Set
Actual Time 7:08 AM EDT 8:00 PM EDT
Civil Twilight 6:42 AM EDT 8:26 PM EDT
Nautical Twilight 6:11 AM EDT 8:56 PM EDT
Astronomical Twilight 5:40 AM EDT 9:28 PM EDT
Moon 2:35 PM EDT 12:17 AM EDT
Length of Visible Light 13h 43m
Length of Day
12h 52m
Tomorrow will be 2m 8s shorter.
Waxing Crescent, 49% of the Moon is Illuminated
Today
Waxing Crescent
Sep 2
First Quarter
Sep 8
Full
Sep 15
Last Quarter
Sep 24
New

Today's Extremes

State Highs State Lows

Community

WunderPhotos

Upload Photos

1,749,587 photos uploaded!

WunderBlogs® & News

Nearby

Snow Depth

Station Depth Elevation
No new snow has been reported.

Earthquake Activity

City Distance Mag. Time & Date
No recent earthquake activity has been reported nearby.
Minimum magnitude displayed is 2.5.

Coastal Water Temperatures

Place Temperature
No Stations Reporting

Nearby Weather Stations